sensor_id;sensor_type;location;lat;lon;timestamp;pressure;altitude;pressure_sealevel;temperature;humidity
38852;BME280;24605;50.092;9.182;2023-08-30T00:01:34;155436.75;;;13.39;100.00
38852;BME280;24605;50.092;9.182;2023-08-30T00:04:00;155402.72;;;13.25;100.00
38852;BME280;24605;50.092;9.182;2023-08-30T00:06:27;155381.81;;;13.17;100.00
38852;BME280;24605;50.092;9.182;2023-08-30T00:08:53;155376.59;;;13.15;100.00
38852;BME280;24605;50.092;9.182;2023-08-30T00:11:23;155371.41;;;13.13;100.00
38852;BME280;24605;50.092;9.182;2023-08-30T00:13:50;155341.34;;;13.01;100.00
38852;BME280;24605;50.092;9.182;2023-08-30T00:16:16;155379.22;;;13.16;100.00
38852;BME280;24605;50.092;9.182;2023-08-30T00:18:43;155354.41;;;13.06;100.00
38852;BME280;24605;50.092;9.182;2023-08-30T00:21:10;155313.91;;;12.90;100.00
38852;BME280;24605;50.092;9.182;2023-08-30T00:23:37;155327.00;;;12.95;100.00
38852;BME280;24605;50.092;9.182;2023-08-30T00:26:03;155360.94;;;13.09;100.00
38852;BME280;24605;50.092;9.182;2023-08-30T00:28:31;155334.81;;;12.98;100.00
38852;BME280;24605;50.092;9.182;2023-08-30T00:30:57;155308.69;;;12.88;100.00
38852;BME280;24605;50.092;9.182;2023-08-30T00:33:24;155293.03;;;12.82;100.00
38852;BME280;24605;50.092;9.182;2023-08-30T00:35:55;155323.06;;;12.94;100.00
38852;BME280;24605;50.092;9.182;2023-08-30T00:38:22;155341.34;;;13.01;100.00
38852;BME280;24605;50.092;9.182;2023-08-30T00:40:49;155315.25;;;12.91;100.00
38852;BME280;24605;50.092;9.182;2023-08-30T00:43:15;155373.97;;;13.14;100.00
38852;BME280;24605;50.092;9.182;2023-08-30T00:45:43;155347.91;;;13.04;100.00
38852;BME280;24605;50.092;9.182;2023-08-30T00:48:10;155329.56;;;12.96;100.00
38852;BME280;24605;50.092;9.182;2023-08-30T00:50:37;155357.03;;;13.07;100.00
38852;BME280;24605;50.092;9.182;2023-08-30T00:53:06;155293.03;;;12.82;100.00
38852;BME280;24605;50.092;9.182;2023-08-30T00:55:34;155253.88;;;12.66;100.00
38852;BME280;24605;50.092;9.182;2023-08-30T00:58:01;155333.53;;;12.98;100.00
38852;BME280;24605;50.092;9.182;2023-08-30T01:00:28;155316.53;;;12.91;100.00
38852;BME280;24605;50.092;9.182;2023-08-30T01:02:57;155327.00;;;12.95;100.00
38852;BME280;24605;50.092;9.182;2023-08-30T01:05:23;155343.94;;;13.02;100.00
38852;BME280;24605;50.092;9.182;2023-08-30T01:07:50;155307.41;;;12.88;100.00
38852;BME280;24605;50.092;9.182;2023-08-30T01:10:18;155307.41;;;12.88;100.00
38852;BME280;24605;50.092;9.182;2023-08-30T01:12:49;155311.31;;;12.89;100.00
38852;BME280;24605;50.092;9.182;2023-08-30T01:15:19;155293.03;;;12.82;100.00
38852;BME280;24605;50.092;9.182;2023-08-30T01:17:47;155315.25;;;12.91;100.00
38852;BME280;24605;50.092;9.182;2023-08-30T01:20:17;155353.09;;;13.06;100.00
38852;BME280;24605;50.092;9.182;2023-08-30T01:22:53;155256.50;;;12.67;100.00
38852;BME280;24605;50.092;9.182;2023-08-30T01:25:32;155268.25;;;12.72;100.00
38852;BME280;24605;50.092;9.182;2023-08-30T01:28:05;155296.94;;;12.83;100.00
38852;BME280;24605;50.092;9.182;2023-08-30T01:30:33;155312.63;;;12.90;100.00
38852;BME280;24605;50.092;9.182;2023-08-30T01:33:03;155300.88;;;12.85;100.00
38852;BME280;24605;50.092;9.182;2023-08-30T01:35:31;155268.25;;;12.72;100.00
38852;BME280;24605;50.092;9.182;2023-08-30T01:38:01;155225.16;;;12.55;100.00
38852;BME280;24605;50.092;9.182;2023-08-30T01:40:28;155199.03;;;12.45;100.00
38852;BME280;24605;50.092;9.182;2023-08-30T01:42:57;155242.13;;;12.62;100.00
38852;BME280;24605;50.092;9.182;2023-08-30T01:45:27;155223.88;;;12.54;100.00
38852;BME280;24605;50.092;9.182;2023-08-30T01:47:55;155174.25;;;12.35;100.00
38852;BME280;24605;50.092;9.182;2023-08-30T01:50:23;155169.03;;;12.33;100.00
38852;BME280;24605;50.092;9.182;2023-08-30T01:52:51;155154.66;;;12.27;100.00
38852;BME280;24605;50.092;9.182;2023-08-30T01:55:20;155145.53;;;12.23;100.00
38852;BME280;24605;50.092;9.182;2023-08-30T01:57:48;155150.78;;;12.26;100.00
38852;BME280;24605;50.092;9.182;2023-08-30T02:00:15;155188.63;;;12.41;100.00
38852;BME280;24605;50.092;9.182;2023-08-30T02:02:43;155183.41;;;12.38;100.00
38852;BME280;24605;50.092;9.182;2023-08-30T02:05:09;155171.66;;;12.34;100.00
38852;BME280;24605;50.092;9.182;2023-08-30T02:07:40;155156.00;;;12.28;100.00
38852;BME280;24605;50.092;9.182;2023-08-30T02:10:13;155126.00;;;12.16;100.00
38852;BME280;24605;50.092;9.182;2023-08-30T02:12:46;155055.47;;;11.88;100.00
38852;BME280;24605;50.092;9.182;2023-08-30T02:15:14;155144.25;;;12.23;100.00
38852;BME280;24605;50.092;9.182;2023-08-30T02:17:44;155140.31;;;12.21;100.00
38852;BME280;24605;50.092;9.182;2023-08-30T02:20:11;155085.53;;;12.00;100.00
38852;BME280;24605;50.092;9.182;2023-08-30T02:22:37;155089.41;;;12.01;100.00
38852;BME280;24605;50.092;9.182;2023-08-30T02:25:05;155153.38;;;12.27;100.00
38852;BME280;24605;50.092;9.182;2023-08-30T02:27:31;155120.75;;;12.14;100.00
38852;BME280;24605;50.092;9.182;2023-08-30T02:29:58;155101.16;;;12.06;100.00
38852;BME280;24605;50.092;9.182;2023-08-30T02:32:25;155123.38;;;12.15;100.00
38852;BME280;24605;50.092;9.182;2023-08-30T02:34:53;155115.53;;;12.12;100.00
38852;BME280;24605;50.092;9.182;2023-08-30T02:37:20;155120.75;;;12.14;100.00
38852;BME280;24605;50.092;9.182;2023-08-30T02:39:45;155123.38;;;12.15;100.00
38852;BME280;24605;50.092;9.182;2023-08-30T02:42:12;155122.03;;;12.14;100.00
38852;BME280;24605;50.092;9.182;2023-08-30T02:44:38;155092.03;;;12.02;100.00
38852;BME280;24605;50.092;9.182;2023-08-30T02:47:05;155062.00;;;11.90;100.00
38852;BME280;24605;50.092;9.182;2023-08-30T02:49:32;155102.50;;;12.06;100.00
38852;BME280;24605;50.092;9.182;2023-08-30T02:52:00;155088.13;;;12.01;100.00
38852;BME280;24605;50.092;9.182;2023-08-30T02:54:26;155084.19;;;11.99;100.00
38852;BME280;24605;50.092;9.182;2023-08-30T02:56:53;155107.69;;;12.09;100.00
38852;BME280;24605;50.092;9.182;2023-08-30T02:59:19;155106.41;;;12.08;100.00
38852;BME280;24605;50.092;9.182;2023-08-30T03:01:46;155097.28;;;12.04;100.00
38852;BME280;24605;50.092;9.182;2023-08-30T03:04:13;155075.00;;;11.96;100.00
38852;BME280;24605;50.092;9.182;2023-08-30T03:06:39;155048.97;;;11.85;100.00
38852;BME280;24605;50.092;9.182;2023-08-30T03:09:07;155077.63;;;11.97;100.00
38852;BME280;24605;50.092;9.182;2023-08-30T03:11:34;155003.28;;;11.67;100.00
38852;BME280;24605;50.092;9.182;2023-08-30T03:14:00;155020.25;;;11.74;100.00
38852;BME280;24605;50.092;9.182;2023-08-30T03:16:26;155058.09;;;11.89;100.00
38852;BME280;24605;50.092;9.182;2023-08-30T03:18:54;155064.59;;;11.91;100.00
38852;BME280;24605;50.092;9.182;2023-08-30T03:21:20;155107.69;;;12.09;100.00
38852;BME280;24605;50.092;9.182;2023-08-30T03:23:47;155089.41;;;12.01;100.00
38852;BME280;24605;50.092;9.182;2023-08-30T03:26:15;155054.13;;;11.87;100.00
38852;BME280;24605;50.092;9.182;2023-08-30T03:28:43;155110.28;;;12.10;100.00
38852;BME280;24605;50.092;9.182;2023-08-30T03:31:14;155126.00;;;12.16;100.00
38852;BME280;24605;50.092;9.182;2023-08-30T03:33:41;155163.78;;;12.31;100.00
38852;BME280;24605;50.092;9.182;2023-08-30T03:36:07;155153.38;;;12.27;100.00
38852;BME280;24605;50.092;9.182;2023-08-30T03:38:35;155124.66;;;12.15;100.00
38852;BME280;24605;50.092;9.182;2023-08-30T03:41:02;155137.72;;;12.20;100.00
38852;BME280;24605;50.092;9.182;2023-08-30T03:43:30;155116.81;;;12.12;100.00
38852;BME280;24605;50.092;9.182;2023-08-30T03:45:57;155141.63;;;12.22;100.00
38852;BME280;24605;50.092;9.182;2023-08-30T03:48:24;155131.19;;;12.18;100.00
38852;BME280;24605;50.092;9.182;2023-08-30T03:50:50;155120.75;;;12.14;100.00
38852;BME280;24605;50.092;9.182;2023-08-30T03:53:17;155116.81;;;12.12;100.00
38852;BME280;24605;50.092;9.182;2023-08-30T03:55:43;155120.75;;;12.14;100.00
38852;BME280;24605;50.092;9.182;2023-08-30T03:58:10;155123.38;;;12.15;100.00
38852;BME280;24605;50.092;9.182;2023-08-30T04:00:38;155201.66;;;12.46;100.00
38852;BME280;24605;50.092;9.182;2023-08-30T04:03:07;155180.78;;;12.37;100.00
38852;BME280;24605;50.092;9.182;2023-08-30T04:05:34;155169.03;;;12.33;100.00
38852;BME280;24605;50.092;9.182;2023-08-30T04:08:01;155172.94;;;12.34;100.00
38852;BME280;24605;50.092;9.182;2023-08-30T04:10:27;155170.34;;;12.33;100.00
38852;BME280;24605;50.092;9.182;2023-08-30T04:12:54;155115.53;;;12.12;100.00
38852;BME280;24605;50.092;9.182;2023-08-30T04:15:20;155149.47;;;12.25;100.00
38852;BME280;24605;50.092;9.182;2023-08-30T04:17:48;155165.13;;;12.31;100.00
38852;BME280;24605;50.092;9.182;2023-08-30T04:20:15;155203.00;;;12.46;100.00
38852;BME280;24605;50.092;9.182;2023-08-30T04:22:41;155238.22;;;12.60;100.00
38852;BME280;24605;50.092;9.182;2023-08-30T04:25:08;155233.00;;;12.58;100.00
38852;BME280;24605;50.092;9.182;2023-08-30T04:27:35;155184.69;;;12.39;100.00
38852;BME280;24605;50.092;9.182;2023-08-30T04:30:02;155179.50;;;12.37;100.00
38852;BME280;24605;50.092;9.182;2023-08-30T04:32:29;155148.16;;;12.25;100.00
38852;BME280;24605;50.092;9.182;2023-08-30T04:34:56;155167.75;;;12.32;100.00
38852;BME280;24605;50.092;9.182;2023-08-30T04:37:23;155175.53;;;12.35;100.00
38852;BME280;24605;50.092;9.182;2023-08-30T04:39:50;155179.50;;;12.37;100.00
38852;BME280;24605;50.092;9.182;2023-08-30T04:42:16;155199.03;;;12.45;100.00
38852;BME280;24605;50.092;9.182;2023-08-30T04:44:43;155188.63;;;12.41;100.00
38852;BME280;24605;50.092;9.182;2023-08-30T04:47:09;155171.66;;;12.34;100.00
38852;BME280;24605;50.092;9.182;2023-08-30T04:49:36;155156.00;;;12.28;100.00
38852;BME280;24605;50.092;9.182;2023-08-30T04:52:04;155161.19;;;12.30;100.00
38852;BME280;24605;50.092;9.182;2023-08-30T04:54:31;155154.66;;;12.27;100.00
38852;BME280;24605;50.092;9.182;2023-08-30T04:56:57;155158.63;;;12.29;100.00
38852;BME280;24605;50.092;9.182;2023-08-30T04:59:24;155169.03;;;12.33;100.00
38852;BME280;24605;50.092;9.182;2023-08-30T05:01:50;155213.41;;;12.50;100.00
38852;BME280;24605;50.092;9.182;2023-08-30T05:04:17;155188.63;;;12.41;100.00
38852;BME280;24605;50.092;9.182;2023-08-30T05:06:43;155209.50;;;12.49;100.00
38852;BME280;24605;50.092;9.182;2023-08-30T05:09:11;155236.91;;;12.60;100.00
38852;BME280;24605;50.092;9.182;2023-08-30T05:11:38;155218.63;;;12.52;100.00
38852;BME280;24605;50.092;9.182;2023-08-30T05:14:04;155257.78;;;12.68;100.00
38852;BME280;24605;50.092;9.182;2023-08-30T05:16:31;155291.75;;;12.81;100.00
38852;BME280;24605;50.092;9.182;2023-08-30T05:18:57;155272.16;;;12.74;100.00
38852;BME280;24605;50.092;9.182;2023-08-30T05:21:23;155280.00;;;12.77;100.00
38852;BME280;24605;50.092;9.182;2023-08-30T05:23:50;155330.91;;;12.97;100.00
38852;BME280;24605;50.092;9.182;2023-08-30T05:26:18;155417.09;;;13.31;100.00
38852;BME280;24605;50.092;9.182;2023-08-30T05:28:44;155419.72;;;13.32;100.00
38852;BME280;24605;50.092;9.182;2023-08-30T05:31:11;155451.06;;;13.44;100.00
38852;BME280;24605;50.092;9.182;2023-08-30T05:33:37;155431.47;;;13.37;100.00
38852;BME280;24605;50.092;9.182;2023-08-30T05:36:04;155505.97;;;13.66;100.00
38852;BME280;24605;50.092;9.182;2023-08-30T05:38:30;155533.38;;;13.77;100.00
38852;BME280;24605;50.092;9.182;2023-08-30T05:40:57;155522.94;;;13.73;100.00
38852;BME280;24605;50.092;9.182;2023-08-30T05:43:25;155537.34;;;13.78;100.00
38852;BME280;24605;50.092;9.182;2023-08-30T05:45:51;155558.22;;;13.87;100.00
38852;BME280;24605;50.092;9.182;2023-08-30T05:48:18;155586.94;;;13.98;100.00
38852;BME280;24605;50.092;9.182;2023-08-30T05:50:44;155563.41;;;13.89;100.00
38852;BME280;24605;50.092;9.182;2023-08-30T05:53:11;155588.28;;;13.99;100.00
38852;BME280;24605;50.092;9.182;2023-08-30T05:55:37;155568.66;;;13.91;100.00
38852;BME280;24605;50.092;9.182;2023-08-30T05:58:04;155567.38;;;13.90;100.00
38852;BME280;24605;50.092;9.182;2023-08-30T06:00:32;155572.59;;;13.92;100.00
38852;BME280;24605;50.092;9.182;2023-08-30T06:02:58;155566.03;;;13.90;100.00
38852;BME280;24605;50.092;9.182;2023-08-30T06:05:26;155556.91;;;13.86;100.00
38852;BME280;24605;50.092;9.182;2023-08-30T06:07:52;155580.41;;;13.95;100.00
38852;BME280;24605;50.092;9.182;2023-08-30T06:10:19;155618.31;;;14.10;100.00
38852;BME280;24605;50.092;9.182;2023-08-30T06:12:46;155682.38;;;14.36;100.00
38852;BME280;24605;50.092;9.182;2023-08-30T06:15:12;155704.56;;;14.45;100.00
38852;BME280;24605;50.092;9.182;2023-08-30T06:17:40;155743.78;;;14.60;100.00
38852;BME280;24605;50.092;9.182;2023-08-30T06:20:07;155729.44;;;14.54;100.00
38852;BME280;24605;50.092;9.182;2023-08-30T06:22:34;155721.56;;;14.51;100.00
38852;BME280;24605;50.092;9.182;2023-08-30T06:25:00;155716.31;;;14.49;100.00
38852;BME280;24605;50.092;9.182;2023-08-30T06:27:29;155698.03;;;14.42;100.00
38852;BME280;24605;50.092;9.182;2023-08-30T06:29:56;155692.81;;;14.40;100.00
38852;BME280;24605;50.092;9.182;2023-08-30T06:32:22;155681.03;;;14.35;100.00
38852;BME280;24605;50.092;9.182;2023-08-30T06:34:50;155746.38;;;14.61;100.00
38852;BME280;24605;50.092;9.182;2023-08-30T06:37:17;155768.69;;;14.70;100.00
38852;BME280;24605;50.092;9.182;2023-08-30T06:39:43;155820.94;;;14.91;100.00
38852;BME280;24605;50.092;9.182;2023-08-30T06:42:09;155818.38;;;14.90;100.00
38852;BME280;24605;50.092;9.182;2023-08-30T06:44:36;155885.03;;;15.16;100.00
38852;BME280;24605;50.092;9.182;2023-08-30T06:47:03;155860.22;;;15.06;100.00
38852;BME280;24605;50.092;9.182;2023-08-30T06:49:30;155879.78;;;15.14;100.00
38852;BME280;24605;50.092;9.182;2023-08-30T06:51:58;155899.41;;;15.22;100.00
38852;BME280;24605;50.092;9.182;2023-08-30T06:54:27;155954.31;;;15.43;100.00
38852;BME280;24605;50.092;9.182;2023-08-30T06:56:57;155951.75;;;15.42;100.00
38852;BME280;24605;50.092;9.182;2023-08-30T06:59:23;155951.75;;;15.42;100.00
38852;BME280;24605;50.092;9.182;2023-08-30T07:01:50;155975.25;;;15.51;100.00
38852;BME280;24605;50.092;9.182;2023-08-30T07:04:16;155836.66;;;14.97;100.00
38852;BME280;24605;50.092;9.182;2023-08-30T07:06:43;155934.72;;;15.35;100.00
38852;BME280;24605;50.092;9.182;2023-08-30T07:09:11;155989.63;;;15.57;100.00
38852;BME280;24605;50.092;9.182;2023-08-30T07:11:38;155960.91;;;15.46;100.00
38852;BME280;24605;50.092;9.182;2023-08-30T07:14:04;155963.50;;;15.47;100.00
38852;BME280;24605;50.092;9.182;2023-08-30T07:16:31;155994.88;;;15.59;100.00
38852;BME280;24605;50.092;9.182;2023-08-30T07:18:58;155997.50;;;15.60;100.00
38852;BME280;24605;50.092;9.182;2023-08-30T07:21:24;156059.03;;;15.85;100.00
38852;BME280;24605;50.092;9.182;2023-08-30T07:23:51;156040.69;;;15.77;100.00
38852;BME280;24605;50.092;9.182;2023-08-30T07:26:19;156010.56;;;15.65;100.00
38852;BME280;24605;50.092;9.182;2023-08-30T07:28:45;156010.56;;;15.65;100.00
38852;BME280;24605;50.092;9.182;2023-08-30T07:31:11;156000.13;;;15.61;100.00
38852;BME280;24605;50.092;9.182;2023-08-30T07:33:40;155967.44;;;15.48;100.00
38852;BME280;24605;50.092;9.182;2023-08-30T07:36:07;156006.66;;;15.64;100.00
38852;BME280;24605;50.092;9.182;2023-08-30T07:38:34;156079.97;;;15.93;100.00
38852;BME280;24605;50.092;9.182;2023-08-30T07:41:01;156072.09;;;15.90;100.00
38852;BME280;24605;50.092;9.182;2023-08-30T07:43:29;156082.59;;;15.94;100.00
38852;BME280;24605;50.092;9.182;2023-08-30T07:45:56;156133.59;;;16.14;100.00
38852;BME280;24605;50.092;9.182;2023-08-30T07:48:22;156127.09;;;16.11;100.00
38852;BME280;24605;50.092;9.182;2023-08-30T07:50:49;156083.88;;;15.94;100.00
38852;BME280;24605;50.092;9.182;2023-08-30T07:53:15;156136.22;;;16.15;100.00
38852;BME280;24605;50.092;9.182;2023-08-30T07:55:42;156188.53;;;16.36;100.00
38852;BME280;24605;50.092;9.182;2023-08-30T07:58:08;156197.75;;;16.39;100.00
38852;BME280;24605;50.092;9.182;2023-08-30T08:00:36;156214.72;;;16.46;100.00
38852;BME280;24605;50.092;9.182;2023-08-30T08:03:03;156282.78;;;16.73;100.00
38852;BME280;24605;50.092;9.182;2023-08-30T08:05:30;156301.09;;;16.80;100.00
38852;BME280;24605;50.092;9.182;2023-08-30T08:07:59;156347.00;;;16.98;100.00
38852;BME280;24605;50.092;9.182;2023-08-30T08:10:26;156358.78;;;17.03;100.00
38852;BME280;24605;50.092;9.182;2023-08-30T08:12:52;156310.28;;;16.84;100.00
38852;BME280;24605;50.092;9.182;2023-08-30T08:15:19;156263.19;;;16.65;100.00
38852;BME280;24605;50.092;9.182;2023-08-30T08:17:47;156364.03;;;17.05;100.00
38852;BME280;24605;50.092;9.182;2023-08-30T08:20:14;156344.38;;;16.97;100.00
38852;BME280;24605;50.092;9.182;2023-08-30T08:22:41;156209.47;;;16.44;100.00
38852;BME280;24605;50.092;9.182;2023-08-30T08:25:09;156161.06;;;16.25;100.00
38852;BME280;24605;50.092;9.182;2023-08-30T08:27:35;156158.44;;;16.24;100.00
38852;BME280;24605;50.092;9.182;2023-08-30T08:30:02;156318.13;;;16.87;100.00
38852;BME280;24605;50.092;9.182;2023-08-30T08:32:30;156303.72;;;16.81;100.00
38852;BME280;24605;50.092;9.182;2023-08-30T08:34:58;156387.59;;;17.14;100.00
38852;BME280;24605;50.092;9.182;2023-08-30T08:37:24;156436.03;;;17.33;100.00
38852;BME280;24605;50.092;9.182;2023-08-30T08:39:51;156377.13;;;17.10;100.00
38852;BME280;24605;50.092;9.182;2023-08-30T08:42:18;156477.94;;;17.50;100.00
38852;BME280;24605;50.092;9.182;2023-08-30T08:44:46;156542.13;;;17.75;100.00
38852;BME280;24605;50.092;9.182;2023-08-30T08:47:14;156567.00;;;17.85;100.00
38852;BME280;24605;50.092;9.182;2023-08-30T08:49:42;156470.06;;;17.47;100.00
38852;BME280;24605;50.092;9.182;2023-08-30T08:52:11;156377.13;;;17.10;100.00
38852;BME280;24605;50.092;9.182;2023-08-30T08:54:39;156449.13;;;17.38;100.00
38852;BME280;24605;50.092;9.182;2023-08-30T08:57:06;156476.66;;;17.49;100.00
38852;BME280;24605;50.092;9.182;2023-08-30T08:59:33;156501.50;;;17.59;100.00
38852;BME280;24605;50.092;9.182;2023-08-30T09:02:00;156561.75;;;17.83;100.00
38852;BME280;24605;50.092;9.182;2023-08-30T09:04:28;156631.25;;;18.10;100.00
38852;BME280;24605;50.092;9.182;2023-08-30T09:06:56;156631.25;;;18.10;99.71
38852;BME280;24605;50.092;9.182;2023-08-30T09:09:25;156624.66;;;18.08;99.63
38852;BME280;24605;50.092;9.182;2023-08-30T09:11:52;156694.16;;;18.35;100.00
38852;BME280;24605;50.092;9.182;2023-08-30T09:14:19;156829.09;;;18.88;96.42
38852;BME280;24605;50.092;9.182;2023-08-30T09:16:54;156894.69;;;19.14;94.68
38852;BME280;24605;50.092;9.182;2023-08-30T09:19:20;156969.47;;;19.44;93.09
38852;BME280;24605;50.092;9.182;2023-08-30T09:21:50;156750.50;;;18.57;93.66
38852;BME280;24605;50.092;9.182;2023-08-30T09:24:17;156690.19;;;18.33;96.61
38852;BME280;24605;50.092;9.182;2023-08-30T09:26:48;156737.34;;;18.52;96.68
38852;BME280;24605;50.092;9.182;2023-08-30T09:29:17;156724.28;;;18.47;94.09
38852;BME280;24605;50.092;9.182;2023-08-30T09:31:44;156837.00;;;18.91;92.44
38852;BME280;24605;50.092;9.182;2023-08-30T09:34:11;156965.50;;;19.42;91.85
38852;BME280;24605;50.092;9.182;2023-08-30T09:36:38;157032.41;;;19.68;87.30
38852;BME280;24605;50.092;9.182;2023-08-30T09:39:07;157054.69;;;19.77;85.86
38852;BME280;24605;50.092;9.182;2023-08-30T09:41:34;156997.00;;;19.54;87.22
38852;BME280;24605;50.092;9.182;2023-08-30T09:44:08;156974.69;;;19.46;88.76
38852;BME280;24605;50.092;9.182;2023-08-30T09:46:39;157014.06;;;19.61;88.98
38852;BME280;24605;50.092;9.182;2023-08-30T09:49:06;157031.06;;;19.68;88.94
38852;BME280;24605;50.092;9.182;2023-08-30T09:51:33;157031.06;;;19.68;86.19
38852;BME280;24605;50.092;9.182;2023-08-30T09:54:04;157107.19;;;19.98;86.96
38852;BME280;24605;50.092;9.182;2023-08-30T09:56:32;157213.47;;;20.40;83.50
38852;BME280;24605;50.092;9.182;2023-08-30T09:58:59;157178.03;;;20.26;84.38
38852;BME280;24605;50.092;9.182;2023-08-30T10:01:29;157140.00;;;20.11;83.01
38852;BME280;24605;50.092;9.182;2023-08-30T10:03:56;157107.19;;;19.98;84.96
38852;BME280;24605;50.092;9.182;2023-08-30T10:06:24;157021.88;;;19.64;86.70
38852;BME280;24605;50.092;9.182;2023-08-30T10:08:51;157132.09;;;20.08;85.62
38852;BME280;24605;50.092;9.182;2023-08-30T10:11:18;157115.09;;;20.01;84.45
38852;BME280;24605;50.092;9.182;2023-08-30T10:13:45;157143.91;;;20.12;84.11
38852;BME280;24605;50.092;9.182;2023-08-30T10:16:18;157095.41;;;19.93;84.70
38852;BME280;24605;50.092;9.182;2023-08-30T10:18:47;157084.88;;;19.89;83.99
38852;BME280;24605;50.092;9.182;2023-08-30T10:21:18;157023.22;;;19.65;84.58
38852;BME280;24605;50.092;9.182;2023-08-30T10:23:45;156825.19;;;18.87;83.62
38852;BME280;24605;50.092;9.182;2023-08-30T10:26:15;156903.88;;;19.18;86.14
38852;BME280;24605;50.092;9.182;2023-08-30T10:28:43;156924.88;;;19.26;87.00
38852;BME280;24605;50.092;9.182;2023-08-30T10:31:10;156937.97;;;19.31;88.03
38852;BME280;24605;50.092;9.182;2023-08-30T10:33:48;156943.22;;;19.33;88.07
38852;BME280;24605;50.092;9.182;2023-08-30T10:36:20;156947.16;;;19.35;88.53
38852;BME280;24605;50.092;9.182;2023-08-30T10:38:49;156913.09;;;19.21;87.06
38852;BME280;24605;50.092;9.182;2023-08-30T10:41:20;156778.00;;;18.68;89.31
38852;BME280;24605;50.092;9.182;2023-08-30T10:43:50;156928.81;;;19.28;89.70
38852;BME280;24605;50.092;9.182;2023-08-30T10:46:29;157032.41;;;19.68;88.35
38852;BME280;24605;50.092;9.182;2023-08-30T10:49:08;156943.22;;;19.33;86.61
38852;BME280;24605;50.092;9.182;2023-08-30T10:51:36;157023.22;;;19.65;85.74
38852;BME280;24605;50.092;9.182;2023-08-30T10:54:10;157074.41;;;19.85;84.15
38852;BME280;24605;50.092;9.182;2023-08-30T10:56:45;157084.88;;;19.89;84.18
38852;BME280;24605;50.092;9.182;2023-08-30T10:59:16;157112.47;;;20.00;83.47
38852;BME280;24605;50.092;9.182;2023-08-30T11:01:43;157206.88;;;20.37;80.73
38852;BME280;24605;50.092;9.182;2023-08-30T11:04:12;157137.38;;;20.10;79.01
38852;BME280;24605;50.092;9.182;2023-08-30T11:06:38;157052.03;;;19.76;79.46
38852;BME280;24605;50.092;9.182;2023-08-30T11:09:07;156974.69;;;19.46;78.43
38852;BME280;24605;50.092;9.182;2023-08-30T11:11:33;157040.25;;;19.71;80.20
38852;BME280;24605;50.092;9.182;2023-08-30T11:14:07;157098.03;;;19.94;79.46
38852;BME280;24605;50.092;9.182;2023-08-30T11:16:33;157197.69;;;20.33;75.83
38852;BME280;24605;50.092;9.182;2023-08-30T11:19:00;157229.19;;;20.46;75.31
38852;BME280;24605;50.092;9.182;2023-08-30T11:21:30;157269.91;;;20.62;76.60
38852;BME280;24605;50.092;9.182;2023-08-30T11:23:57;157314.56;;;20.79;73.99
38852;BME280;24605;50.092;9.182;2023-08-30T11:26:23;157293.50;;;20.71;72.12
38852;BME280;24605;50.092;9.182;2023-08-30T11:28:50;157250.19;;;20.54;70.65
38852;BME280;24605;50.092;9.182;2023-08-30T11:31:18;157280.38;;;20.66;70.33
38852;BME280;24605;50.092;9.182;2023-08-30T11:33:50;157206.88;;;20.37;71.68
38852;BME280;24605;50.092;9.182;2023-08-30T11:36:17;157178.03;;;20.26;71.99
38852;BME280;24605;50.092;9.182;2023-08-30T11:38:46;157244.94;;;20.52;71.19
38852;BME280;24605;50.092;9.182;2023-08-30T11:41:13;157235.75;;;20.48;71.65
38852;BME280;24605;50.092;9.182;2023-08-30T11:43:39;157217.41;;;20.41;68.62
38852;BME280;24605;50.092;9.182;2023-08-30T11:46:06;157235.75;;;20.48;68.21
38852;BME280;24605;50.092;9.182;2023-08-30T11:48:34;157263.28;;;20.59;71.42
38852;BME280;24605;50.092;9.182;2023-08-30T11:51:01;157339.47;;;20.89;69.20
38852;BME280;24605;50.092;9.182;2023-08-30T11:53:28;157364.38;;;20.99;68.89
38852;BME280;24605;50.092;9.182;2023-08-30T11:55:56;157469.44;;;21.40;67.11
38852;BME280;24605;50.092;9.182;2023-08-30T11:58:23;157570.59;;;21.80;65.51
38852;BME280;24605;50.092;9.182;2023-08-30T12:00:50;157355.22;;;20.95;67.53
38852;BME280;24605;50.092;9.182;2023-08-30T12:03:19;157372.28;;;21.02;69.93
38852;BME280;24605;50.092;9.182;2023-08-30T12:05:46;157369.66;;;21.01;69.32
38852;BME280;24605;50.092;9.182;2023-08-30T12:08:18;157389.34;;;21.09;69.14
38852;BME280;24605;50.092;9.182;2023-08-30T12:10:44;157432.66;;;21.26;68.03
38852;BME280;24605;50.092;9.182;2023-08-30T12:13:23;157331.59;;;20.86;68.48
38852;BME280;24605;50.092;9.182;2023-08-30T12:15:50;157256.75;;;20.57;70.81
38852;BME280;24605;50.092;9.182;2023-08-30T12:18:16;157104.56;;;19.97;71.51
38852;BME280;24605;50.092;9.182;2023-08-30T12:20:53;157062.56;;;19.80;73.49
38852;BME280;24605;50.092;9.182;2023-08-30T12:23:21;157100.66;;;19.95;73.20
38852;BME280;24605;50.092;9.182;2023-08-30T12:25:58;157200.31;;;20.34;71.44
38852;BME280;24605;50.092;9.182;2023-08-30T12:28:26;157285.63;;;20.68;70.46
38852;BME280;24605;50.092;9.182;2023-08-30T12:30:52;157227.88;;;20.45;71.59
38852;BME280;24605;50.092;9.182;2023-08-30T12:33:19;157210.84;;;20.39;71.40
38852;BME280;24605;50.092;9.182;2023-08-30T12:35:46;157268.56;;;20.61;71.02
38852;BME280;24605;50.092;9.182;2023-08-30T12:38:13;157192.47;;;20.31;70.32
38852;BME280;24605;50.092;9.182;2023-08-30T12:40:43;157187.22;;;20.29;70.53
38852;BME280;24605;50.092;9.182;2023-08-30T12:43:09;157251.47;;;20.55;72.52
38852;BME280;24605;50.092;9.182;2023-08-30T12:45:39;157239.66;;;20.50;72.90